createdAt,value
2018-12-22T00:02:45.807Z,39.67
2018-12-22T00:05:14.807Z,41.30
2018-12-22T00:07:43.970Z,26.00
2018-12-22T01:02:44.062Z,48.23
2018-12-22T01:05:13.090Z,30.03
2018-12-22T01:07:42.125Z,37.77
2018-12-22T02:02:40.228Z,35.53
2018-12-22T02:05:09.590Z,39.27
2018-12-22T02:07:38.650Z,31.40
2018-12-22T03:03:00.163Z,46.93
2018-12-22T03:05:29.159Z,27.43
2018-12-22T03:07:59.386Z,54.50
2018-12-22T04:02:37.240Z,21.07
2018-12-22T04:05:07.134Z,19.13
2018-12-22T04:07:36.445Z,23.10
2018-12-22T04:10:06.020Z,23.63
2018-12-22T05:02:38.590Z,17.93
2018-12-22T05:05:07.615Z,13.80
2018-12-22T05:07:36.679Z,16.77
2018-12-22T05:10:06.089Z,19.63
2018-12-22T06:02:38.976Z,12.93
2018-12-22T06:05:09.379Z,11.23
2018-12-22T06:07:38.470Z,11.60
2018-12-22T07:02:37.696Z,11.67
2018-12-22T07:05:06.804Z,7.63
2018-12-22T07:07:35.815Z,10.80
2018-12-22T07:10:06.121Z,10.50
2018-12-22T08:02:39.034Z,16.57
2018-12-22T08:05:08.062Z,12.03
2018-12-22T08:07:37.091Z,10.73
2018-12-22T09:02:39.647Z,19.60
2018-12-22T09:05:13.250Z,16.63
2018-12-22T09:07:42.524Z,12.80
2018-12-22T10:02:37.988Z,12.87
2018-12-22T10:05:07.791Z,11.53
2018-12-22T10:07:37.466Z,31.87
2018-12-22T11:02:37.382Z,12.70
2018-12-22T11:05:09.050Z,11.20
2018-12-22T11:07:38.059Z,26.27
2018-12-22T12:02:43.464Z,11.07
2018-12-22T12:05:12.695Z,9.73
2018-12-22T12:07:42.178Z,9.27
2018-12-22T13:02:37.514Z,30.33
2018-12-22T13:05:07.667Z,39.97
2018-12-22T13:07:36.704Z,26.67
2018-12-22T14:02:40.310Z,10.00
2018-12-22T14:05:11.861Z,9.50
2018-12-22T14:07:40.967Z,8.07
2018-12-22T15:02:42.249Z,8.97
2018-12-22T15:05:11.258Z,8.63
2018-12-22T15:07:40.318Z,7.73
2018-12-22T16:02:53.138Z,13.83
2018-12-22T16:05:17.104Z,14.10
2018-12-22T16:07:46.238Z,13.50
2018-12-22T17:02:52.578Z,9.53
2018-12-22T17:05:23.509Z,9.60
2018-12-22T17:07:52.548Z,7.97
2018-12-22T18:02:48.497Z,21.43
2018-12-22T18:05:17.548Z,24.10
2018-12-22T18:07:46.729Z,22.70
2018-12-22T19:02:37.192Z,11.43
2018-12-22T19:05:06.587Z,10.70
2018-12-22T19:07:35.602Z,10.07
2018-12-22T19:10:05.758Z,10.43
2018-12-22T20:02:44.731Z,10.87
2018-12-22T20:05:13.794Z,7.57
2018-12-22T20:07:42.863Z,8.47
2018-12-22T21:02:48.887Z,7.80
2018-12-22T21:05:18.111Z,7.60
2018-12-22T21:07:47.145Z,6.53
2018-12-22T22:02:36.960Z,10.30
2018-12-22T22:05:05.987Z,7.13
2018-12-22T22:07:35.150Z,7.63
2018-12-22T22:10:04.154Z,8.53
2018-12-22T23:02:45.237Z,8.37
2018-12-22T23:05:14.284Z,12.30
2018-12-22T23:07:43.379Z,12.70
